Bookmark and Share
Track history (hours):
 

Elizabeth

Last reported at 2014-Apr-24 13:31 UTC. Time now 2014-Apr-24 14:13 UTC.
Position S 24°04' W 046°21'.

Length 190 m; draft 6.5 m.

Type: Cargo ship. MMSI: 566073000.

NotesDate/timePositionNaut miles runAvg speedWind from/ knotsBaromVisibWave heightAir tempDewpointWater temp
2014-Apr-24 13:31S 24°04' W 046°21'0 0.0
2014-Apr-24 12:28S 24°05' W 046°21'0 0.0
2014-Apr-24 11:28S 24°04' W 046°21'0 0.0
2014-Apr-24 10:07S 24°05' W 046°21'0 0.0
2014-Apr-24 09:22S 24°05' W 046°21'0 0.0
2014-Apr-24 08:31S 24°05' W 046°21'0 0.1
2014-Apr-24 07:28S 24°05' W 046°21'0 0.0
2014-Apr-24 06:28S 24°05' W 046°21'0 0.0
2014-Apr-24 05:31S 24°05' W 046°21'0 0.0
2014-Apr-24 04:28S 24°05' W 046°21'0 0.0
2014-Apr-24 03:04S 24°05' W 046°21'0 0.0
2014-Apr-24 01:30S 24°05' W 046°21'0 0.0
2014-Apr-24 00:33S 24°05' W 046°21'0 0.0
2014-Apr-23 23:21S 24°05' W 046°21'0 0.0
2014-Apr-23 22:18S 24°05' W 046°21'0 0.0
2014-Apr-23 21:30S 24°05' W 046°21'0 0.0
2014-Apr-23 20:33S 24°05' W 046°21'0 0.0
2014-Apr-23 19:12S 24°05' W 046°21'0 0.0
2014-Apr-23 18:30S 24°05' W 046°21'0 0.0
2014-Apr-23 17:12S 24°05' W 046°21'0 0.0
2014-Apr-23 16:33S 24°05' W 046°21'0 0.0
2014-Apr-23 15:24S 24°05' W 046°21'4 4.2
2014-Apr-23 14:33S 24°01' W 046°20'1 0.6
2014-Apr-23 13:33S 24°01' W 046°20'0 0.0
2014-Apr-23 12:33S 24°01' W 046°20'0 0.0
2014-Apr-23 11:33S 24°01' W 046°20'1 1.0
2014-Apr-23 10:33S 24°02' W 046°20'3 2.4
2014-Apr-23 09:30S 24°04' W 046°21'0 0.0
2014-Apr-23 08:33S 24°04' W 046°21'0 0.0
2014-Apr-23 07:21S 24°04' W 046°21'0 0.0
2014-Apr-23 06:30S 24°04' W 046°21'0 0.0
2014-Apr-23 05:30S 24°04' W 046°21'0 0.0
2014-Apr-23 04:30S 24°04' W 046°21'0 0.0
2014-Apr-23 03:33S 24°04' W 046°21'0 0.0
2014-Apr-23 02:27S 24°04' W 046°21'0 0.0
2014-Apr-23 01:30S 24°04' W 046°21'0 0.0
2014-Apr-23 00:33S 24°04' W 046°21'0 0.0
2014-Apr-22 23:33S 24°04' W 046°21'0 0.0
2014-Apr-22 22:30S 24°04' W 046°21'0 0.1
2014-Apr-22 21:18S 24°04' W 046°21'1 1.6
2014-Apr-22 20:33S 24°05' W 046°22'1211.4
2014-Apr-22 19:33S 24°17' W 046°24'9 0.4
2014-Apr-21 19:33S 24°08' W 046°23'10 9.9
2014-Apr-21 18:33S 23°59' W 046°17'3 2.6
2014-Apr-21 17:33S 23°57' W 046°19'0 0.0
2014-Apr-21 16:33S 23°57' W 046°19'0 0.0
2014-Apr-21 15:33S 23°57' W 046°19'0 0.0
2014-Apr-21 14:33S 23°57' W 046°19'0 0.0
2014-Apr-21 13:33S 23°57' W 046°19'0 0.0
2014-Apr-21 12:33S 23°57' W 046°19'0 0.0
2014-Apr-21 11:33S 23°57' W 046°19'0 0.0
2014-Apr-21 10:33S 23°57' W 046°19'0 0.0
2014-Apr-21 09:33S 23°57' W 046°19'0 0.0
2014-Apr-21 08:33S 23°57' W 046°19'0 0.0
2014-Apr-21 07:33S 23°57' W 046°19'0 0.0
2014-Apr-21 06:33S 23°57' W 046°19'0 0.0
2014-Apr-21 05:33S 23°57' W 046°19'0 0.0
2014-Apr-21 04:33S 23°57' W 046°19'0 0.0
2014-Apr-21 03:33S 23°57' W 046°19'0 0.0
2014-Apr-21 02:33S 23°57' W 046°19'0 0.0
2014-Apr-21 01:30S 23°57' W 046°19'0 0.0
2014-Apr-21 00:33S 23°57' W 046°19'0 0.0
2014-Apr-20 23:33S 23°57' W 046°19'0 0.0
2014-Apr-20 22:33S 23°57' W 046°19'0 0.0
2014-Apr-20 21:33S 23°57' W 046°19'0 0.0
2014-Apr-20 20:27S 23°57' W 046°19'0 0.0
2014-Apr-20 19:30S 23°57' W 046°19'0 0.0
2014-Apr-20 18:33S 23°57' W 046°19'0 0.0
2014-Apr-20 17:33S 23°57' W 046°19'0 0.0
2014-Apr-20 16:33S 23°57' W 046°19'0 0.0
2014-Apr-20 15:33S 23°57' W 046°19'0 0.0
2014-Apr-20 14:33S 23°57' W 046°19'0 0.0
2014-Apr-20 13:33S 23°57' W 046°19'0 0.0
2014-Apr-20 12:33S 23°57' W 046°19'0 0.0
2014-Apr-20 11:30S 23°57' W 046°19'0 0.0
2014-Apr-20 10:30S 23°57' W 046°19'0 0.0
2014-Apr-20 09:33S 23°57' W 046°19'0 0.0
2014-Apr-20 08:33S 23°57' W 046°19'0 0.0
2014-Apr-20 07:33S 23°57' W 046°19'0 0.0
2014-Apr-20 06:33S 23°57' W 046°19'0 0.0
2014-Apr-20 05:33S 23°57' W 046°19'0 0.0
2014-Apr-20 04:30S 23°57' W 046°19'0 0.0
2014-Apr-20 03:27S 23°57' W 046°19'0 0.0
2014-Apr-20 02:33S 23°57' W 046°19'0 0.0
2014-Apr-20 01:33S 23°57' W 046°19'0 0.0
2014-Apr-20 00:33S 23°57' W 046°19'0 0.0
2014-Apr-19 23:30S 23°57' W 046°19'0 0.0
2014-Apr-19 22:33S 23°57' W 046°19'0 0.0
2014-Apr-19 21:33S 23°57' W 046°19'0 0.0
2014-Apr-19 20:33S 23°57' W 046°19'0 0.0
2014-Apr-19 19:24S 23°57' W 046°19'0 0.0
2014-Apr-19 18:30S 23°57' W 046°19'0 0.0
2014-Apr-19 17:33S 23°57' W 046°19'0 0.0
2014-Apr-19 16:33S 23°57' W 046°19'0 0.0
2014-Apr-19 15:33S 23°57' W 046°19'0 0.0
2014-Apr-19 14:33S 23°57' W 046°19'0 0.0
2014-Apr-19 13:33S 23°57' W 046°19'0 0.0
2014-Apr-19 12:30S 23°57' W 046°19'0 0.0
2014-Apr-19 11:33S 23°57' W 046°19'0 0.0
2014-Apr-19 10:30S 23°57' W 046°19'0 0.0
2014-Apr-19 09:30S 23°57' W 046°19'0 0.0
2014-Apr-19 08:30S 23°57' W 046°19'0 0.0
2014-Apr-19 07:30S 23°57' W 046°19'0 0.0
2014-Apr-19 06:33S 23°57' W 046°19'0 0.0
2014-Apr-19 05:33S 23°57' W 046°19'0 0.0
2014-Apr-19 04:30S 23°57' W 046°19'0 0.0
2014-Apr-19 03:33S 23°57' W 046°19'0 0.0
2014-Apr-19 02:33S 23°57' W 046°19'0 0.0
2014-Apr-19 01:33S 23°57' W 046°19'0 0.0
2014-Apr-19 00:33S 23°57' W 046°19'0 0.0
2014-Apr-18 23:33S 23°57' W 046°19'0 0.0
2014-Apr-18 22:33S 23°57' W 046°19'0 0.0
2014-Apr-18 21:33S 23°57' W 046°19'0 0.0
2014-Apr-18 20:33S 23°57' W 046°19'0 0.0
2014-Apr-18 19:33S 23°57' W 046°19'0 0.0
2014-Apr-18 18:33S 23°57' W 046°19'0 0.0
2014-Apr-18 17:33S 23°57' W 046°19'0 0.0
2014-Apr-18 16:30S 23°57' W 046°19'0 0.0
2014-Apr-18 15:33S 23°57' W 046°19'0 0.0
2014-Apr-18 14:33S 23°57' W 046°19'0 0.0
2014-Apr-18 13:33S 23°57' W 046°19'0 0.0
2014-Apr-18 12:33S 23°57' W 046°19'0 0.0
2014-Apr-18 11:33S 23°57' W 046°19'0 0.0
2014-Apr-18 10:33S 23°57' W 046°19'0 0.0
2014-Apr-18 09:33S 23°57' W 046°19'0 0.0
2014-Apr-18 08:33S 23°57' W 046°19'0 0.0
2014-Apr-18 07:33S 23°57' W 046°19'0 0.0
2014-Apr-18 06:30S 23°57' W 046°19'0 0.0
2014-Apr-18 05:27S 23°57' W 046°19'0 0.0
2014-Apr-18 04:33S 23°57' W 046°19'0 0.0
2014-Apr-18 03:33S 23°57' W 046°19'0 0.0
2014-Apr-18 02:33S 23°57' W 046°19'0 0.0
2014-Apr-18 01:33S 23°57' W 046°19'0 0.0
2014-Apr-18 00:33S 23°57' W 046°19'0 0.0
2014-Apr-17 23:33S 23°57' W 046°19'0 0.0
2014-Apr-17 22:33S 23°57' W 046°19'0 0.0
2014-Apr-17 21:33S 23°57' W 046°19'0 0.0
2014-Apr-17 20:33S 23°57' W 046°19'0 0.0
2014-Apr-17 19:30S 23°57' W 046°19'0 0.0
2014-Apr-17 18:30S 23°57' W 046°19'0 0.0
2014-Apr-17 17:33S 23°57' W 046°19'0 0.0
2014-Apr-17 16:33S 23°57' W 046°19'0 0.0
2014-Apr-17 15:30S 23°57' W 046°19'0 0.0
2014-Apr-17 14:33S 23°57' W 046°19'0 0.0
2014-Apr-17 13:33S 23°57' W 046°19'0 0.0
2014-Apr-17 12:33S 23°57' W 046°19'0 0.0
2014-Apr-17 11:33S 23°57' W 046°19'0 0.0
2014-Apr-17 10:33S 23°57' W 046°19'0 0.0
2014-Apr-17 09:33S 23°57' W 046°19'0 0.0
2014-Apr-17 08:33S 23°57' W 046°19'0 0.0
2014-Apr-17 07:33S 23°57' W 046°19'0 0.0
2014-Apr-17 06:33S 23°57' W 046°19'0 0.0
2014-Apr-17 05:33S 23°57' W 046°19'0 0.0
2014-Apr-17 04:33S 23°57' W 046°19'0 0.0
2014-Apr-17 03:33S 23°57' W 046°19'0 0.0
2014-Apr-17 02:33S 23°57' W 046°19'0 0.0
2014-Apr-17 01:33S 23°57' W 046°19'0 0.0
2014-Apr-17 00:33S 23°57' W 046°19'0 0.0
2014-Apr-16 23:27S 23°57' W 046°19'0 0.0
2014-Apr-16 22:33S 23°57' W 046°19'0 0.0
2014-Apr-16 21:33S 23°57' W 046°19'0 0.0
2014-Apr-16 20:33S 23°57' W 046°19'0 0.0
2014-Apr-16 19:33S 23°57' W 046°19'0 0.0
2014-Apr-16 18:33S 23°57' W 046°19'0 0.0
2014-Apr-16 17:33S 23°57' W 046°19'0 0.0
2014-Apr-16 16:33S 23°57' W 046°19'0 0.0
2014-Apr-16 15:33S 23°57' W 046°19'0 0.0
2014-Apr-16 14:33S 23°57' W 046°19'0 0.0
2014-Apr-16 13:27S 23°57' W 046°19'0 0.0
2014-Apr-16 12:33S 23°57' W 046°19'0 0.0
2014-Apr-16 11:33S 23°57' W 046°19'0 0.0
2014-Apr-16 10:33S 23°57' W 046°19'13 2.5
2014-Apr-16 05:07S 24°09' W 046°25'0 0.4
2014-Apr-16 04:33S 24°09' W 046°25'4 3.8
2014-Apr-16 03:31S 24°12' W 046°22'7 7.1
2014-Apr-16 02:32S 24°14' W 046°14'0 0.0
2014-Apr-15 23:25S 24°14' W 046°14'0 0.0
2014-Apr-15 16:28S 24°14' W 046°14'0 0.0
2014-Apr-15 15:22S 24°14' W 046°14'0 0.0
2014-Apr-15 09:31S 24°14' W 046°14'0 0.0
2014-Apr-15 05:31S 24°14' W 046°14'0 0.0
2014-Apr-14 16:31S 24°14' W 046°14'  

Dump ship's entire track history

sailing weather and tide predictions

Elizabeth — 9V8794 — position and weather